Time;durP1;ratioP1;P1;durP2;ratioP2;P2;SDS_P1;SDS_P2;PMS_P1;PMS_P2;Temp;Humidity;BMP_temperature;BMP_pressure;BME280_temperature;BME280_humidity;BME280_pressure;Samples;Min_cycle;Max_cycle;Signal;HPM_P1;HPM_P2
2022/09/17 00:00:59;;;;;;;38.03;20.97;;;7.00;99.90;;;;;;4405294;28;659997;-84
2022/09/17 00:03:49;;;;;;;39.10;22.03;;;7.00;99.90;;;;;;4388062;28;659986;-84
2022/09/17 00:06:36;;;;;;;34.70;20.53;;;6.90;99.90;;;;;;4386157;28;659525;-84
2022/09/17 00:09:24;;;;;;;37.03;21.80;;;6.90;99.90;;;;;;4407710;28;659888;-84
2022/09/17 00:12:11;;;;;;;44.20;22.53;;;6.90;99.90;;;;;;4393144;28;659720;-84
2022/09/17 00:14:59;;;;;;;36.93;21.33;;;6.80;99.90;;;;;;4406885;28;660488;-84
2022/09/17 00:17:46;;;;;;;37.60;21.20;;;6.80;99.90;;;;;;4391790;28;659520;-84
2022/09/17 00:20:38;;;;;;;32.80;21.27;;;6.70;99.90;;;;;;4407358;28;659705;-84
2022/09/17 00:23:25;;;;;;;33.63;19.53;;;6.70;99.90;;;;;;4374930;28;660437;-84
2022/09/17 00:26:12;;;;;;;30.93;19.90;;;6.80;99.90;;;;;;4418774;28;659944;-85
2022/09/17 00:28:59;;;;;;;33.20;19.63;;;6.70;99.90;;;;;;4413498;28;659568;-86
2022/09/17 00:31:48;;;;;;;34.97;19.47;;;6.70;99.90;;;;;;4392224;28;660721;-86
2022/09/17 00:34:36;;;;;;;32.60;20.53;;;6.80;99.90;;;;;;4389241;28;659610;-86
2022/09/17 00:37:23;;;;;;;38.93;20.07;;;6.80;99.90;;;;;;4413744;28;659312;-86
2022/09/17 00:40:10;;;;;;;33.03;18.77;;;6.70;99.90;;;;;;4393342;28;660210;-86
2022/09/17 00:42:57;;;;;;;45.17;18.40;;;6.70;99.90;;;;;;4413967;28;660842;-86
2022/09/17 00:45:45;;;;;;;50.43;20.37;;;6.60;99.90;;;;;;4405697;28;659343;-86
2022/09/17 00:48:34;;;;;;;35.13;18.77;;;6.60;99.90;;;;;;4412520;28;659147;-86
2022/09/17 00:51:23;;;;;;;40.60;18.50;;;6.50;99.90;;;;;;4391060;28;660505;-86
2022/09/17 00:54:10;;;;;;;34.33;18.13;;;6.50;99.90;;;;;;4401628;28;659718;-85
2022/09/17 00:56:57;;;;;;;33.13;18.03;;;6.50;99.90;;;;;;4409590;28;660359;-86
2022/09/17 00:59:44;;;;;;;31.27;17.17;;;6.50;99.90;;;;;;4411817;28;659030;-87
2022/09/17 01:02:32;;;;;;;38.57;18.87;;;6.40;99.90;;;;;;4388746;28;659624;-86
2022/09/17 01:05:21;;;;;;;34.80;19.33;;;6.40;99.90;;;;;;4412982;28;660043;-85
2022/09/17 01:08:11;;;;;;;35.83;19.90;;;6.40;99.90;;;;;;4384972;28;660698;-85
2022/09/17 01:11:10;;;;;;;35.97;18.47;;;6.40;99.90;;;;;;4386134;28;660414;-86
2022/09/17 01:14:03;;;;;;;32.37;19.83;;;6.40;99.90;;;;;;4380728;28;659861;-86
2022/09/17 01:16:55;;;;;;;39.47;19.90;;;6.40;99.90;;;;;;4388068;28;659496;-86
2022/09/17 01:20:14;;;;;;;34.22;19.60;;;6.40;99.90;;;;;;4391546;28;660757;-86
2022/09/17 01:23:15;;;;;;;36.97;21.40;;;6.40;99.90;;;;;;4386529;28;659704;-86
2022/09/17 01:26:12;;;;;;;33.37;20.27;;;6.40;99.90;;;;;;4387234;28;659844;-86
2022/09/17 01:29:02;;;;;;;33.13;19.83;;;6.40;99.90;;;;;;4384965;28;660091;-87
2022/09/17 01:31:51;;;;;;;35.57;21.20;;;6.30;99.90;;;;;;4388700;28;659550;-86
2022/09/17 01:34:41;;;;;;;55.20;22.47;;;6.30;99.90;;;;;;4390315;28;660206;-86
2022/09/17 01:37:30;;;;;;;35.83;21.93;;;6.30;99.90;;;;;;4390223;28;660957;-85
2022/09/17 01:40:23;;;;;;;35.43;21.67;;;6.20;99.90;;;;;;4389647;28;659990;-86
2022/09/17 01:43:13;;;;;;;39.10;21.43;;;6.20;99.90;;;;;;4389620;28;659609;-85
2022/09/17 01:46:03;;;;;;;36.70;20.37;;;6.10;99.90;;;;;;4388824;28;659691;-85
2022/09/17 01:48:53;;;;;;;46.30;21.67;;;6.20;99.90;;;;;;4387098;28;660178;-86
2022/09/17 01:51:41;;;;;;;37.05;21.10;;;6.20;99.90;;;;;;4390349;28;659779;-86
2022/09/17 01:54:30;;;;;;;36.13;21.07;;;6.10;99.90;;;;;;4409905;28;660592;-86
2022/09/17 01:57:20;;;;;;;34.87;20.27;;;6.20;99.90;;;;;;4388699;28;660474;-87
2022/09/17 02:00:09;;;;;;;39.40;20.50;;;6.40;99.90;;;;;;4386656;28;660151;-86
2022/09/17 02:02:58;;;;;;;27.63;17.37;;;6.40;99.90;;;;;;4387796;28;660756;-86
2022/09/17 02:05:49;;;;;;;34.10;18.77;;;6.40;99.90;;;;;;4402346;28;660548;-85
2022/09/17 02:08:39;;;;;;;30.33;18.90;;;6.40;99.90;;;;;;4384394;28;660025;-85
2022/09/17 02:11:26;;;;;;;31.53;17.73;;;6.50;99.90;;;;;;4389617;28;659676;-85
2022/09/17 02:14:15;;;;;;;32.80;17.17;;;6.40;99.90;;;;;;4405169;28;660113;-87
2022/09/17 02:17:05;;;;;;;29.30;17.83;;;6.40;99.90;;;;;;4386266;28;659539;-85
2022/09/17 02:19:52;;;;;;;28.13;15.60;;;6.50;99.90;;;;;;4385857;28;659530;-86
2022/09/17 02:22:42;;;;;;;26.77;16.40;;;6.60;99.90;;;;;;4409437;28;659256;-85
2022/09/17 02:25:34;;;;;;;28.57;16.60;;;6.70;99.90;;;;;;4386238;28;659951;-86
2022/09/17 02:28:24;;;;;;;25.50;16.00;;;6.70;99.90;;;;;;4387503;28;660463;-86
2022/09/17 02:31:11;;;;;;;29.03;15.63;;;6.60;99.90;;;;;;4379816;28;660572;-86
2022/09/17 02:34:00;;;;;;;24.33;15.27;;;6.60;99.90;;;;;;4404525;28;660052;-86
2022/09/17 02:36:47;;;;;;;29.33;15.40;;;6.60;99.90;;;;;;4386059;28;660002;-86
2022/09/17 02:39:36;;;;;;;21.70;13.93;;;6.60;99.90;;;;;;4408658;28;659483;-87
2022/09/17 02:42:27;;;;;;;23.43;14.53;;;6.70;99.90;;;;;;4382882;28;659982;-87
2022/09/17 02:45:17;;;;;;;32.13;13.97;;;6.70;99.90;;;;;;4387769;28;659678;-86
2022/09/17 02:48:35;;;;;;;25.67;15.40;;;6.80;99.90;;;;;;4387252;28;659569;-85
2022/09/17 02:51:27;;;;;;;30.10;16.70;;;6.90;99.90;;;;;;4385669;28;659682;-86
2022/09/17 02:54:18;;;;;;;29.87;17.47;;;7.00;99.90;;;;;;4384954;28;659938;-87
2022/09/17 02:57:10;;;;;;;30.23;18.90;;;7.20;99.90;;;;;;4400253;28;661422;-86
2022/09/17 03:00:02;;;;;;;34.87;16.57;;;7.20;99.90;;;;;;4388292;28;660361;-86
2022/09/17 03:02:51;;;;;;;36.07;20.57;;;7.30;99.90;;;;;;4386902;28;660125;-86
2022/09/17 03:05:38;;;;;;;32.10;18.40;;;7.40;99.90;;;;;;4386088;28;660450;-86
2022/09/17 03:08:28;;;;;;;33.03;16.37;;;7.50;99.90;;;;;;4386779;28;659222;-87
2022/09/17 03:11:15;;;;;;;35.37;19.37;;;7.50;99.90;;;;;;4386907;28;660291;-86
2022/09/17 03:14:04;;;;;;;37.57;19.47;;;7.50;99.90;;;;;;4411292;28;660612;-87
2022/09/17 03:16:51;;;;;;;29.17;17.73;;;7.60;99.90;;;;;;4388125;28;660272;-86
2022/09/17 03:19:38;;;;;;;28.53;17.60;;;7.50;99.90;;;;;;4408955;28;660151;-86
2022/09/17 03:22:25;;;;;;;29.05;16.95;;;7.50;99.90;;;;;;4389230;28;660023;-86
2022/09/17 03:25:12;;;;;;;32.23;16.37;;;7.40;99.90;;;;;;4405140;28;659952;-86
2022/09/17 03:27:59;;;;;;;28.83;15.80;;;7.30;99.90;;;;;;4410427;28;659445;-86
2022/09/17 03:30:48;;;;;;;30.57;16.30;;;7.40;99.90;;;;;;4387713;28;659619;-86
2022/09/17 03:33:35;;;;;;;33.13;15.63;;;7.30;99.90;;;;;;4383276;28;660015;-86
2022/09/17 03:36:22;;;;;;;39.83;15.60;;;7.30;99.90;;;;;;4412564;28;660216;-87
2022/09/17 03:39:10;;;;;;;21.63;14.03;;;7.30;99.90;;;;;;4408110;28;659175;-87
2022/09/17 03:41:57;;;;;;;28.40;15.37;;;7.30;99.90;;;;;;4381629;28;660965;-87
2022/09/17 03:44:44;;;;;;;206.80;19.77;;;7.40;99.90;;;;;;4407364;28;659423;-87
2022/09/17 03:47:32;;;;;;;27.83;13.57;;;7.40;99.90;;;;;;4382104;28;660486;-86
2022/09/17 03:50:20;;;;;;;24.93;14.50;;;7.20;99.90;;;;;;4403517;28;659408;-87
2022/09/17 03:53:07;;;;;;;29.47;16.30;;;7.20;99.90;;;;;;4409892;28;659998;-86
2022/09/17 03:55:57;;;;;;;31.10;18.93;;;7.20;99.90;;;;;;4408965;28;660042;-87
2022/09/17 03:58:44;;;;;;;39.27;21.27;;;7.30;99.90;;;;;;4383117;28;659916;-86
2022/09/17 04:01:31;;;;;;;41.27;18.67;;;7.50;99.90;;;;;;4383929;28;659498;-86
2022/09/17 04:04:19;;;;;;;35.30;20.43;;;7.40;99.90;;;;;;4406864;28;660488;-86
2022/09/17 04:07:07;;;;;;;29.20;18.20;;;7.50;99.90;;;;;;4386041;28;659853;-86
2022/09/17 04:09:54;;;;;;;35.33;19.63;;;7.60;99.90;;;;;;4409499;28;659725;-86
2022/09/17 04:12:41;;;;;;;30.83;20.50;;;7.60;99.90;;;;;;4380939;28;660126;-84
2022/09/17 04:15:28;;;;;;;39.53;22.87;;;7.60;99.90;;;;;;4407621;28;660277;-86
2022/09/17 04:18:15;;;;;;;34.43;22.43;;;7.60;99.90;;;;;;4381758;28;659739;-86
2022/09/17 04:21:04;;;;;;;31.83;19.63;;;7.50;99.90;;;;;;4406445;28;660022;-87
2022/09/17 04:23:51;;;;;;;32.63;18.70;;;7.60;99.90;;;;;;4386150;28;660101;-86
2022/09/17 04:26:38;;;;;;;31.00;18.93;;;7.70;99.90;;;;;;4404791;28;660097;-86
2022/09/17 04:29:25;;;;;;;27.33;17.97;;;7.70;99.90;;;;;;4383395;28;659790;-86
2022/09/17 04:32:12;;;;;;;27.83;17.90;;;7.80;99.90;;;;;;4413351;28;658955;-85
2022/09/17 04:34:59;;;;;;;49.10;20.40;;;7.80;99.90;;;;;;4412001;28;659267;-85
2022/09/17 04:37:53;;;;;;;34.33;18.57;;;7.80;99.90;;;;;;4386427;28;659579;-85
2022/09/17 04:40:41;;;;;;;30.67;20.47;;;7.80;99.90;;;;;;4384669;28;659910;-85
2022/09/17 04:43:28;;;;;;;26.77;16.97;;;7.70;99.90;;;;;;4417791;28;660165;-86
2022/09/17 04:46:15;;;;;;;35.50;19.23;;;7.40;99.90;;;;;;4388901;28;659911;-86
2022/09/17 04:49:03;;;;;;;31.50;19.80;;;7.40;99.90;;;;;;4413573;28;661000;-86
2022/09/17 04:51:50;;;;;;;29.97;20.40;;;7.40;99.90;;;;;;4411806;28;660080;-86
2022/09/17 04:54:38;;;;;;;33.20;23.38;;;7.50;99.90;;;;;;4414476;28;660337;-85
2022/09/17 04:57:26;;;;;;;25.77;17.43;;;7.60;99.90;;;;;;4395359;28;659776;-85
2022/09/17 05:00:14;;;;;;;26.97;15.90;;;7.70;99.90;;;;;;4408501;28;660699;-86
2022/09/17 05:03:01;;;;;;;32.13;18.07;;;7.70;99.90;;;;;;4384621;28;660391;-86
2022/09/17 05:05:48;;;;;;;25.90;13.40;;;7.70;99.90;;;;;;4408341;28;659705;-86
2022/09/17 05:08:36;;;;;;;23.13;12.97;;;7.90;99.90;;;;;;4391338;28;659581;-85
2022/09/17 05:11:24;;;;;;;18.10;11.57;;;8.10;99.90;;;;;;4405947;28;660054;-86
2022/09/17 05:14:12;;;;;;;19.40;12.67;;;8.20;99.90;;;;;;4387881;28;659695;-86
2022/09/17 05:17:00;;;;;;;19.97;12.00;;;8.30;99.90;;;;;;4400092;28;659698;-85
2022/09/17 05:19:47;;;;;;;25.15;11.75;;;8.40;99.90;;;;;;4418478;28;659844;-86
2022/09/17 05:22:34;;;;;;;19.17;11.93;;;8.50;99.90;;;;;;4415899;28;659269;-86
2022/09/17 05:25:23;;;;;;;21.23;12.00;;;8.60;99.90;;;;;;4387228;28;660207;-86
2022/09/17 05:28:12;;;;;;;15.87;10.87;;;8.70;99.90;;;;;;4390597;28;659946;-86
2022/09/17 05:30:59;;;;;;;17.97;10.93;;;8.70;99.90;;;;;;4406222;28;659566;-86
2022/09/17 05:33:46;;;;;;;15.90;11.30;;;8.80;99.90;;;;;;4393551;28;659320;-86
2022/09/17 05:36:33;;;;;;;17.00;11.07;;;8.90;99.90;;;;;;4424856;28;660026;-86
2022/09/17 05:39:24;;;;;;;17.10;11.07;;;8.80;99.90;;;;;;4394307;28;659552;-86
2022/09/17 05:42:11;;;;;;;15.27;10.67;;;9.00;99.90;;;;;;4382730;28;659538;-87
2022/09/17 05:44:59;;;;;;;15.33;10.13;;;8.90;99.90;;;;;;4413584;28;660091;-86
2022/09/17 05:47:46;;;;;;;17.07;10.83;;;9.00;99.90;;;;;;4390993;28;660069;-86
2022/09/17 05:50:34;;;;;;;18.33;10.83;;;9.00;99.90;;;;;;4411173;28;660048;-86
2022/09/17 05:53:21;;;;;;;16.53;10.03;;;9.10;99.90;;;;;;4405592;28;659426;-85
2022/09/17 05:56:08;;;;;;;19.43;10.13;;;9.30;99.90;;;;;;4423199;28;660340;-86
2022/09/17 05:58:55;;;;;;;18.55;11.27;;;9.30;99.90;;;;;;4394040;28;659819;-85
2022/09/17 06:01:44;;;;;;;19.63;12.40;;;9.20;99.90;;;;;;4422412;28;660566;-86
2022/09/17 06:04:31;;;;;;;23.30;12.30;;;9.20;99.90;;;;;;4389303;28;659972;-86
2022/09/17 06:07:18;;;;;;;16.63;11.47;;;9.30;99.90;;;;;;4413835;28;660492;-85
2022/09/17 06:10:07;;;;;;;25.27;14.07;;;9.40;99.90;;;;;;4398371;28;659820;-85
2022/09/17 06:12:57;;;;;;;25.33;16.30;;;9.50;99.90;;;;;;4412872;28;659801;-86
2022/09/17 06:15:49;;;;;;;32.27;18.30;;;9.70;99.90;;;;;;4390283;28;659903;-85
2022/09/17 06:18:38;;;;;;;24.93;16.10;;;9.80;99.90;;;;;;4380140;28;660088;-86
2022/09/17 06:21:25;;;;;;;27.63;18.87;;;9.70;99.90;;;;;;4398915;28;659997;-85
2022/09/17 06:24:12;;;;;;;29.17;18.20;;;9.60;99.90;;;;;;4416019;28;659620;-85
2022/09/17 06:26:59;;;;;;;26.30;16.43;;;9.70;99.90;;;;;;4406931;28;660049;-85
2022/09/17 06:29:46;;;;;;;29.57;16.33;;;9.70;99.90;;;;;;4390289;28;659824;-85
2022/09/17 06:32:34;;;;;;;23.17;14.13;;;9.60;99.90;;;;;;4410867;28;659663;-86
2022/09/17 06:35:22;;;;;;;22.70;14.30;;;9.80;99.90;;;;;;4386528;28;659799;-86
2022/09/17 06:38:09;;;;;;;21.07;14.40;;;9.80;99.90;;;;;;4413187;28;659485;-86
2022/09/17 06:40:56;;;;;;;7.97;6.03;;;10.00;99.90;;;;;;4389828;28;659925;-85
2022/09/17 06:43:43;;;;;;;23.40;14.33;;;10.10;99.90;;;;;;4420537;28;658543;-86
2022/09/17 06:46:31;;;;;;;26.07;16.30;;;10.00;99.90;;;;;;4392644;28;660947;-86
2022/09/17 06:49:18;;;;;;;21.27;14.70;;;10.10;99.90;;;;;;4412651;28;661226;-86
2022/09/17 06:52:07;;;;;;;17.60;10.88;;;10.20;99.90;;;;;;4397869;28;661036;-86
2022/09/17 06:54:54;;;;;;;22.50;15.27;;;10.30;99.90;;;;;;4412010;28;660438;-86
2022/09/17 06:57:41;;;;;;;20.53;13.23;;;10.30;99.90;;;;;;4389234;28;660950;-86
2022/09/17 07:00:29;;;;;;;14.02;8.02;;;10.20;99.90;;;;;;4410422;28;660614;-86
2022/09/17 07:03:16;;;;;;;16.57;10.83;;;10.20;99.90;;;;;;4384412;28;659921;-86
2022/09/17 07:06:03;;;;;;;16.10;10.60;;;10.30;99.90;;;;;;4418054;28;661467;-86
2022/09/17 07:08:52;;;;;;;17.60;12.33;;;10.30;99.90;;;;;;4388706;28;661677;-85
2022/09/17 07:11:39;;;;;;;18.70;11.63;;;10.40;99.90;;;;;;4412255;28;661308;-85
2022/09/17 07:14:26;;;;;;;20.00;13.10;;;10.20;99.90;;;;;;4388713;28;660921;-85
2022/09/17 07:17:13;;;;;;;18.93;12.70;;;10.30;99.90;;;;;;4418339;28;661272;-86
2022/09/17 07:20:00;;;;;;;20.57;11.73;;;10.40;99.90;;;;;;4378638;28;660770;-87
2022/09/17 07:22:56;;;;;;;8.77;5.37;;;10.30;99.90;;;;;;4412230;28;661407;-86
2022/09/17 07:25:44;;;;;;;15.10;9.13;;;10.40;99.90;;;;;;4387733;28;658532;-87
2022/09/17 07:28:31;;;;;;;7.70;5.07;;;10.30;99.90;;;;;;4380638;28;659573;-86
2022/09/17 07:31:18;;;;;;;11.17;7.53;;;10.50;99.90;;;;;;4423752;28;659905;-85
2022/09/17 07:34:05;;;;;;;18.93;10.90;;;10.50;99.90;;;;;;4391877;28;660136;-85
2022/09/17 07:36:52;;;;;;;15.97;9.53;;;10.60;99.90;;;;;;4396040;28;662013;-85
2022/09/17 07:39:40;;;;;;;9.83;7.17;;;11.10;99.90;;;;;;4406263;28;659808;-87
2022/09/17 07:42:31;;;;;;;10.23;7.67;;;11.40;99.90;;;;;;4410432;28;659798;-85
2022/09/17 07:45:19;;;;;;;12.30;7.70;;;11.50;99.90;;;;;;4393972;28;659814;-86
2022/09/17 07:48:06;;;;;;;10.87;6.97;;;11.20;99.90;;;;;;4392747;28;659845;-85
2022/09/17 07:50:53;;;;;;;11.13;6.90;;;11.30;99.90;;;;;;4413883;28;660554;-85
2022/09/17 07:53:40;;;;;;;9.23;6.25;;;11.20;99.90;;;;;;4390803;28;660367;-86
2022/09/17 07:56:27;;;;;;;8.30;5.97;;;11.30;99.90;;;;;;4410548;28;659027;-86
2022/09/17 07:59:16;;;;;;;10.50;6.93;;;11.40;99.90;;;;;;4408174;28;658377;-85
2022/09/17 08:02:03;;;;;;;9.70;6.30;;;11.20;99.90;;;;;;4385618;28;660309;-85
2022/09/17 08:04:50;;;;;;;11.80;6.70;;;11.30;99.90;;;;;;4391048;28;658463;-85
2022/09/17 08:07:37;;;;;;;11.67;6.37;;;11.30;99.90;;;;;;4412526;28;660215;-85
2022/09/17 08:10:25;;;;;;;11.87;6.40;;;11.30;99.90;;;;;;4410439;28;659267;-86
2022/09/17 08:13:13;;;;;;;9.87;5.93;;;11.10;99.90;;;;;;4383151;28;659926;-86
2022/09/17 08:16:02;;;;;;;12.17;7.20;;;11.00;99.90;;;;;;4401469;28;658463;-85
2022/09/17 08:18:49;;;;;;;9.03;4.90;;;11.00;99.90;;;;;;4411904;28;660316;-85
2022/09/17 08:21:36;;;;;;;18.67;9.67;;;10.90;99.90;;;;;;4390029;28;658754;-86
2022/09/17 08:24:24;;;;;;;13.30;7.20;;;10.90;99.90;;;;;;4404907;28;659832;-85
2022/09/17 08:27:11;;;;;;;10.43;5.97;;;10.90;99.90;;;;;;4390445;28;659944;-85
2022/09/17 08:29:58;;;;;;;12.27;6.00;;;11.00;99.90;;;;;;4413508;28;660775;-85
2022/09/17 08:32:46;;;;;;;14.03;8.70;;;11.00;99.90;;;;;;4395031;28;659806;-85
2022/09/17 08:35:34;;;;;;;14.27;6.10;;;11.00;99.90;;;;;;4419225;28;660147;-86
2022/09/17 08:38:21;;;;;;;6.87;4.67;;;11.20;99.90;;;;;;4390270;28;660009;-85
2022/09/17 08:41:18;;;;;;;6.83;4.93;;;11.50;99.90;;;;;;4418853;28;659549;-85
2022/09/17 08:44:12;;;;;;;7.00;4.33;;;11.80;99.90;;;;;;4392956;28;658691;-85
2022/09/17 08:47:01;;;;;;;7.47;4.93;;;11.80;99.90;;;;;;4394315;28;658679;-85
2022/09/17 08:49:51;;;;;;;10.10;5.20;;;11.60;99.90;;;;;;4387676;28;660186;-86
2022/09/17 08:53:10;;;;;;;24.13;10.10;;;11.00;99.90;;;;;;4388700;28;660563;-85
2022/09/17 08:56:00;;;;;;;14.50;6.20;;;11.10;99.90;;;;;;4367879;28;661215;-85
2022/09/17 08:59:03;;;;;;;8.50;4.80;;;11.40;99.90;;;;;;4392401;28;659776;-84
2022/09/17 09:01:55;;;;;;;13.30;6.23;;;11.90;99.90;;;;;;4375063;28;658892;-84
2022/09/17 09:04:59;;;;;;;10.53;5.33;;;12.20;99.90;;;;;;4392548;28;660734;-85
2022/09/17 09:07:49;;;;;;;7.43;4.27;;;12.50;99.90;;;;;;4387271;28;659747;-85
2022/09/17 09:10:40;;;;;;;9.00;5.03;;;13.00;99.90;;;;;;4386540;28;658818;-85
2022/09/17 09:13:28;;;;;;;7.70;4.17;;;13.20;99.90;;;;;;4383861;28;658844;-85
2022/09/17 09:16:17;;;;;;;10.40;4.87;;;13.20;99.90;;;;;;4392201;28;658627;-85
2022/09/17 09:19:11;;;;;;;10.60;5.30;;;13.00;99.90;;;;;;4414766;28;659523;-85
2022/09/17 09:22:03;;;;;;;9.60;3.67;;;12.80;99.90;;;;;;4378480;28;659924;-86
2022/09/17 09:24:53;;;;;;;9.63;4.37;;;12.70;99.90;;;;;;4370103;28;659275;-85
2022/09/17 09:27:43;;;;;;;8.47;3.80;;;12.20;99.90;;;;;;4391767;28;659327;-85
2022/09/17 09:30:35;;;;;;;8.18;3.35;;;12.30;99.90;;;;;;4395857;28;658899;-85
2022/09/17 09:33:26;;;;;;;6.10;2.93;;;12.60;99.90;;;;;;4388746;28;658699;-85
2022/09/17 09:36:14;;;;;;;5.00;2.90;;;12.60;99.90;;;;;;4392176;28;659106;-86
2022/09/17 09:39:04;;;;;;;4.60;3.10;;;12.70;99.90;;;;;;4388465;28;659063;-85
2022/09/17 09:41:53;;;;;;;4.50;3.00;;;12.60;99.90;;;;;;4396547;28;658955;-85
2022/09/17 09:44:40;;;;;;;13.03;4.73;;;12.40;99.90;;;;;;4404993;28;658309;-85
2022/09/17 09:47:40;;;;;;;10.50;4.37;;;12.40;99.90;;;;;;4413374;28;659380;-86
2022/09/17 09:50:33;;;;;;;6.20;3.60;;;12.10;99.90;;;;;;4379523;28;660086;-85
2022/09/17 09:53:25;;;;;;;7.23;3.03;;;12.00;99.90;;;;;;4369748;28;659260;-85
2022/09/17 09:56:27;;;;;;;9.03;4.40;;;12.10;99.90;;;;;;4385629;28;658915;-85
2022/09/17 09:59:14;;;;;;;8.47;4.07;;;12.10;99.90;;;;;;4389793;28;658698;-85
2022/09/17 10:02:01;;;;;;;7.50;3.90;;;12.10;99.90;;;;;;4393215;28;658947;-86
2022/09/17 10:04:48;;;;;;;8.33;3.43;;;12.00;99.90;;;;;;4413032;28;658630;-86
2022/09/17 10:07:43;;;;;;;6.30;3.33;;;11.80;99.90;;;;;;4386246;28;658933;-84
2022/09/17 10:10:30;;;;;;;6.60;3.60;;;11.70;99.90;;;;;;4390935;28;658738;-85
2022/09/17 10:13:19;;;;;;;4.67;3.07;;;11.70;99.90;;;;;;4413619;28;659105;-85
2022/09/17 10:16:16;;;;;;;7.77;4.63;;;11.70;99.90;;;;;;4393023;28;658736;-85
2022/09/17 10:19:12;;;;;;;15.00;6.70;;;11.70;99.90;;;;;;4382373;28;658590;-85
2022/09/17 10:21:59;;;;;;;12.87;5.23;;;12.00;99.90;;;;;;4385297;28;659829;-85
2022/09/17 10:24:46;;;;;;;8.23;3.27;;;12.20;99.90;;;;;;4388222;28;660187;-85
2022/09/17 10:27:35;;;;;;;10.77;5.00;;;12.60;99.90;;;;;;4414801;28;658579;-85
2022/09/17 10:30:24;;;;;;;14.63;5.03;;;12.40;99.90;;;;;;4379298;28;660165;-85
2022/09/17 10:33:21;;;;;;;5.10;3.20;;;12.70;99.90;;;;;;4388322;28;659636;-85
2022/09/17 10:36:09;;;;;;;6.00;3.80;;;12.60;99.90;;;;;;4386248;28;659014;-84
2022/09/17 10:38:56;;;;;;;7.63;3.17;;;12.80;99.90;;;;;;4395271;28;659001;-85
2022/09/17 10:41:47;;;;;;;6.73;3.20;;;12.70;99.90;;;;;;4416997;28;659796;-85
2022/09/17 10:44:34;;;;;;;5.50;2.57;;;12.70;99.90;;;;;;4391889;28;658729;-85
2022/09/17 10:47:25;;;;;;;5.73;2.63;;;12.70;99.90;;;;;;4386546;28;658901;-85
2022/09/17 10:50:16;;;;;;;4.40;2.57;;;12.80;99.90;;;;;;4383321;28;659457;-85
2022/09/17 10:53:05;;;;;;;9.83;2.50;;;13.00;99.90;;;;;;4392237;28;659595;-84
2022/09/17 10:55:55;;;;;;;7.10;3.00;;;13.00;99.90;;;;;;4399023;28;658945;-85
2022/09/17 10:58:48;;;;;;;5.87;3.10;;;13.10;99.90;;;;;;4386381;28;659594;-85
2022/09/17 11:01:40;;;;;;;5.33;2.77;;;13.10;99.90;;;;;;4399920;28;658269;-86
2022/09/17 11:04:37;;;;;;;8.40;2.60;;;12.90;99.90;;;;;;4383261;28;659945;-85
2022/09/17 11:07:34;;;;;;;6.60;3.43;;;13.20;99.90;;;;;;4394921;28;659208;-85
2022/09/17 11:10:23;;;;;;;3.70;2.60;;;13.20;99.90;;;;;;4357266;28;659019;-86
2022/09/17 11:13:16;;;;;;;3.73;2.00;;;13.10;99.90;;;;;;4346164;28;658681;-85
2022/09/17 11:16:12;;;;;;;9.20;2.97;;;13.00;99.90;;;;;;4366666;28;658845;-85
2022/09/17 11:19:04;;;;;;;1.83;1.53;;;12.80;99.90;;;;;;4348174;28;658690;-85
2022/09/17 11:21:53;;;;;;;3.60;2.50;;;12.60;99.90;;;;;;4357861;28;659370;-85
2022/09/17 11:24:59;;;;;;;5.70;2.80;;;12.20;99.90;;;;;;4370163;28;659084;-85
2022/09/17 11:27:52;;;;;;;5.10;3.03;;;12.00;99.90;;;;;;4353800;28;659015;-85
2022/09/17 11:30:45;;;;;;;10.13;3.37;;;11.90;99.90;;;;;;4358053;28;658756;-85
2022/09/17 11:33:52;;;;;;;8.33;3.97;;;11.80;99.90;;;;;;4344676;28;660064;-85
2022/09/17 11:36:45;;;;;;;7.17;3.30;;;11.90;99.90;;;;;;4364661;28;659784;-85
2022/09/17 11:39:36;;;;;;;8.93;3.40;;;11.70;99.90;;;;;;4348746;28;658846;-85
2022/09/17 11:42:25;;;;;;;8.57;4.57;;;11.70;99.90;;;;;;4357487;28;658808;-84
2022/09/17 11:45:15;;;;;;;10.73;3.70;;;11.80;99.90;;;;;;4359527;28;659378;-85
2022/09/17 11:48:05;;;;;;;10.63;3.73;;;11.70;99.90;;;;;;4366913;28;660028;-85
2022/09/17 11:50:55;;;;;;;10.20;3.77;;;11.70;99.90;;;;;;4346674;28;660101;-85
2022/09/17 11:53:44;;;;;;;7.40;4.53;;;11.80;99.90;;;;;;4352627;28;660258;-86
2022/09/17 11:56:34;;;;;;;5.97;3.60;;;11.90;99.90;;;;;;4357364;28;658663;-84
2022/09/17 11:59:25;;;;;;;7.53;3.90;;;11.90;99.90;;;;;;4353945;28;658795;-85
2022/09/17 12:02:17;;;;;;;9.40;4.20;;;11.80;99.90;;;;;;4359984;28;659157;-86
2022/09/17 12:05:05;;;;;;;6.77;4.27;;;11.70;99.90;;;;;;4358586;28;658760;-85
2022/09/17 12:07:56;;;;;;;7.60;4.40;;;11.90;99.90;;;;;;4363740;28;659353;-86
2022/09/17 12:10:45;;;;;;;9.63;4.33;;;11.90;99.90;;;;;;4389528;28;659820;-84
2022/09/17 12:13:35;;;;;;;8.77;5.47;;;11.80;99.90;;;;;;4392883;28;658559;-85
2022/09/17 12:16:24;;;;;;;9.13;5.10;;;11.70;99.90;;;;;;4393022;28;658948;-84
2022/09/17 12:19:14;;;;;;;12.30;7.10;;;11.80;99.90;;;;;;4393827;28;658836;-87
2022/09/17 12:22:04;;;;;;;9.10;4.67;;;11.90;99.90;;;;;;4394463;28;660162;-84
2022/09/17 12:24:51;;;;;;;12.90;6.50;;;12.10;99.90;;;;;;4392970;28;658722;-86
2022/09/17 12:27:40;;;;;;;13.37;7.37;;;12.00;99.90;;;;;;4418403;28;660197;-85
2022/09/17 12:30:29;;;;;;;8.00;5.57;;;12.00;99.90;;;;;;4388265;28;660159;-85
2022/09/17 12:33:19;;;;;;;7.47;5.00;;;11.80;99.90;;;;;;4393803;28;658659;-85
2022/09/17 12:36:37;;;;;;;7.17;4.60;;;11.70;99.90;;;;;;4394346;28;658685;-85
2022/09/17 12:39:43;;;;;;;10.00;4.00;;;11.70;99.90;;;;;;4393342;28;659030;-85
2022/09/17 12:42:38;;;;;;;7.93;4.67;;;11.70;99.90;;;;;;4378221;28;659677;-84
2022/09/17 12:45:49;;;;;;;7.47;4.70;;;11.80;99.90;;;;;;4396594;28;659410;-84
2022/09/17 12:48:57;;;;;;;8.37;4.60;;;11.80;99.90;;;;;;4391693;28;658548;-85
2022/09/17 12:51:55;;;;;;;10.40;5.40;;;11.60;99.90;;;;;;4388147;28;658829;-85
2022/09/17 12:54:56;;;;;;;7.60;4.50;;;11.60;99.90;;;;;;4389367;28;659877;-85
2022/09/17 12:57:45;;;;;;;6.30;4.00;;;11.60;99.90;;;;;;4389482;28;658664;-85
2022/09/17 13:00:36;;;;;;;8.20;5.20;;;11.60;99.90;;;;;;4392208;28;658960;-85
2022/09/17 13:03:26;;;;;;;10.30;5.40;;;11.50;99.90;;;;;;4388632;28;658796;-84
2022/09/17 13:06:41;;;;;;;8.97;5.73;;;11.60;99.90;;;;;;4387869;28;660367;-84
2022/09/17 13:10:02;;;;;;;10.13;4.95;;;11.90;99.90;;;;;;4386034;28;658579;-85
2022/09/17 13:12:49;;;;;;;10.27;4.93;;;12.20;99.90;;;;;;4366163;28;659639;-85
2022/09/17 13:15:45;;;;;;;11.47;5.27;;;12.20;99.90;;;;;;4388290;28;659806;-85
2022/09/17 13:18:34;;;;;;;11.07;5.57;;;12.30;99.90;;;;;;4382390;28;660034;-85
2022/09/17 13:21:25;;;;;;;9.77;6.37;;;12.30;99.90;;;;;;4392042;28;659983;-85
2022/09/17 13:24:15;;;;;;;12.70;5.60;;;12.00;99.90;;;;;;4391384;28;659462;-85
2022/09/17 13:27:03;;;;;;;10.97;5.40;;;12.20;99.90;;;;;;4382462;28;660071;-85
2022/09/17 13:30:00;;;;;;;7.97;5.33;;;12.40;99.90;;;;;;4391006;28;659503;-85
2022/09/17 13:32:52;;;;;;;10.87;5.07;;;12.60;99.90;;;;;;4397745;28;658711;-86
2022/09/17 13:35:50;;;;;;;7.67;5.20;;;12.60;99.90;;;;;;4399927;28;659532;-85
2022/09/17 13:38:40;;;;;;;8.47;5.57;;;12.30;99.90;;;;;;4384020;28;658832;-85
2022/09/17 13:41:28;;;;;;;13.00;5.60;;;12.10;99.90;;;;;;4394439;28;659597;-85
2022/09/17 13:44:16;;;;;;;10.60;5.67;;;12.20;99.90;;;;;;4400139;28;659905;-85
2022/09/17 13:47:12;;;;;;;8.73;5.63;;;12.20;99.90;;;;;;4410036;28;659758;-84
2022/09/17 13:50:00;;;;;;;9.17;5.20;;;12.40;99.90;;;;;;4393458;28;659037;-85
2022/09/17 13:52:49;;;;;;;10.53;5.20;;;12.40;99.90;;;;;;4395470;28;660218;-86
2022/09/17 13:55:37;;;;;;;9.83;5.27;;;12.30;99.90;;;;;;4394287;28;660033;-84
2022/09/17 13:58:25;;;;;;;9.47;4.80;;;12.30;99.90;;;;;;4410350;28;658347;-84
2022/09/17 14:01:13;;;;;;;7.17;4.90;;;12.30;99.90;;;;;;4394417;28;658829;-85
2022/09/17 14:04:01;;;;;;;8.77;4.30;;;12.10;99.90;;;;;;4400352;28;658747;-85
2022/09/17 14:06:53;;;;;;;7.47;4.47;;;12.00;99.90;;;;;;4411146;28;658492;-85
2022/09/17 14:09:52;;;;;;;7.50;4.67;;;12.20;99.90;;;;;;4386857;28;658689;-85
2022/09/17 14:12:57;;;;;;;9.53;4.90;;;12.30;99.90;;;;;;4391555;28;658936;-85
2022/09/17 14:16:02;;;;;;;8.80;5.03;;;12.30;99.90;;;;;;4393276;28;658264;-85
2022/09/17 14:18:58;;;;;;;8.00;4.80;;;12.10;99.90;;;;;;4404542;28;658937;-84
2022/09/17 14:21:58;;;;;;;10.33;4.90;;;12.20;99.90;;;;;;4380659;28;658827;-85
2022/09/17 14:24:51;;;;;;;9.47;4.73;;;12.40;99.90;;;;;;4370133;28;659935;-85
2022/09/17 14:27:49;;;;;;;9.03;4.47;;;12.50;99.90;;;;;;4372973;28;659371;-86